メインページ
METAR-TAF:

METAR-TAF

空港 :

昆明, 中華人民共和国

昆明長水国際空港

緯度: 25-01N, 経度: 102-41E, 海抜: 1892m

現時点の気象観測

当レポートは1時間3分前の04:00(UTC)に作成
南/南西の風 10kt
気温 18°C
湿度 83%
気圧 1024 hPa
視程10km以上
高度2000ftの千切れ雲あり
高度4000ftの千切れ雲あり

METAR: ZPPP 210400Z 21005MPS 9999 BKN020 BKN040 18/15 Q1024 NOSIG

時間: 13:03 (05:03 UTC)

予報

当レポートは9時間52分前の19:11(UTC)に作成
予報は21日の 00時(UTC)から 21日の 24時(UTC)まで有効
南/南西の風 8kt
視程10km以上
高度2600ftの雲は散在している

TAF: ZPPP 201911Z 2100/2124 21004MPS 9999 SCT026 TX21/2108Z TN13/2123Z

4,000以上の空港の気象観測と天気予報(METAR報とTAF報)

利用可能な観測所は地図上に黄色い丸と赤い丸で示す。

丸の上にカーソルを重ねると観測所名を参照できる。

次にクリックすると気象観測と天気予報を参照できる。

マップの切り替え:黒色「×」印の緑ボタンをクリックして拡大、「-」印の緑ボタンをクリックして縮小、緑色の三角印をクリックして隣りの地図に切り替え


METAR-TAF: